Platzwetter Flugplatz Wels

Flugwetter Linz LOWL

[Quelle: ADDS]
METAR
LOWL 260450Z 26004KT 4200 BR VCFG NSC 01/00 Q1023 TEMPO 1200 BCFG =
LOWL 260515Z 2606/2706 28005KT CAVOK TX12/2613Z TN01/2606Z PROB40 TEMPO 2606/2607 1200 BCFG SCT002 BECMG 2612/2614 9999 SCT030 BKN070 BECMG 2620/2623 3000 BECMG 2623/2702 0400 FG BKN001 TEMPO 2703/2706 1200 BKN002
TAF
LOWL 260515Z 2606/2706 28005KT CAVOK TX12/2613Z TN01/2606Z PROB40 TEMPO 2606/2607 1200 BCFG SCT002 BECMG 2612/2614 9999 SCT030 BKN070 BECMG 2620/2623 3000 BECMG 2623/2702 0400 FG BKN001 TEMPO 2703/2706 1200 BKN002 =

Flugwetter Salzburg LOWS

[Quelle: ADDS]
METAR
LOWS 260450Z 15005KT CAVOK 04/02 Q1023 NOSIG =
LOWS 260515Z 2606/2706 15005KT CAVOK TX13/2613Z TN05/2704Z BECMG 2609/2611 34005KT 9999 SCT050 SCT100 BECMG 2617/2619 15004KT TEMPO 2619/2706 BKN050
TAF
LOWS 260515Z 2606/2706 15005KT CAVOK TX13/2613Z TN05/2704Z BECMG 2609/2611 34005KT 9999 SCT050 SCT100 BECMG 2617/2619 15004KT TEMPO 2619/2706 BKN050 =

Wind - Verlauf

Windrichtung - Verlauf

Temperatur - Verlauf

Relative Luftfeuchtigkeit - Verlauf

Luftdruck - Verlauf

Wir benutzen Cookies

Wir nutzen Cookies auf unserer Website. Einige von ihnen sind essenziell für den Betrieb der Seite, während andere uns helfen, diese Website und die Nutzererfahrung zu verbessern (Tracking Cookies). Sie können selbst entscheiden, ob Sie die Cookies zulassen möchten. Bitte beachten Sie, dass bei einer Ablehnung womöglich nicht mehr alle Funktionalitäten der Seite zur Verfügung stehen.